sensor_id;sensor_type;location;lat;lon;timestamp;P1;durP1;ratioP1;P2;durP2;ratioP2
48853;SDS011;34673;52.808;17.856;2023-04-25T00:00:16;7.30;;;3.92;;
48853;SDS011;34673;52.808;17.856;2023-04-25T00:02:43;6.38;;;3.78;;
48853;SDS011;34673;52.808;17.856;2023-04-25T00:05:11;8.45;;;4.10;;
48853;SDS011;34673;52.808;17.856;2023-04-25T00:07:38;7.28;;;4.00;;
48853;SDS011;34673;52.808;17.856;2023-04-25T00:10:06;5.32;;;3.60;;
48853;SDS011;34673;52.808;17.856;2023-04-25T00:12:34;6.68;;;4.03;;
48853;SDS011;34673;52.808;17.856;2023-04-25T00:15:01;9.48;;;4.00;;
48853;SDS011;34673;52.808;17.856;2023-04-25T00:17:28;5.28;;;3.40;;
48853;SDS011;34673;52.808;17.856;2023-04-25T00:19:56;6.50;;;3.55;;
48853;SDS011;34673;52.808;17.856;2023-04-25T00:22:24;6.88;;;3.60;;
48853;SDS011;34673;52.808;17.856;2023-04-25T00:24:51;4.88;;;2.88;;
48853;SDS011;34673;52.808;17.856;2023-04-25T00:27:19;6.75;;;3.53;;
48853;SDS011;34673;52.808;17.856;2023-04-25T00:29:47;4.28;;;3.00;;
48853;SDS011;34673;52.808;17.856;2023-04-25T00:32:14;5.82;;;3.17;;
48853;SDS011;34673;52.808;17.856;2023-04-25T00:34:41;5.38;;;2.88;;
48853;SDS011;34673;52.808;17.856;2023-04-25T00:37:08;5.43;;;2.70;;
48853;SDS011;34673;52.808;17.856;2023-04-25T00:39:35;4.95;;;2.72;;
48853;SDS011;34673;52.808;17.856;2023-04-25T00:42:02;6.63;;;2.92;;
48853;SDS011;34673;52.808;17.856;2023-04-25T00:44:30;5.47;;;3.70;;
48853;SDS011;34673;52.808;17.856;2023-04-25T00:46:59;4.93;;;2.50;;
48853;SDS011;34673;52.808;17.856;2023-04-25T00:49:28;6.15;;;2.72;;
48853;SDS011;34673;52.808;17.856;2023-04-25T00:51:55;4.18;;;2.78;;
48853;SDS011;34673;52.808;17.856;2023-04-25T00:54:23;5.80;;;2.92;;
48853;SDS011;34673;52.808;17.856;2023-04-25T00:56:52;4.25;;;2.60;;
48853;SDS011;34673;52.808;17.856;2023-04-25T00:59:19;3.88;;;2.53;;
48853;SDS011;34673;52.808;17.856;2023-04-25T01:01:47;3.95;;;2.58;;
48853;SDS011;34673;52.808;17.856;2023-04-25T01:04:14;4.43;;;2.60;;
48853;SDS011;34673;52.808;17.856;2023-04-25T01:06:42;3.90;;;2.30;;
48853;SDS011;34673;52.808;17.856;2023-04-25T01:09:09;4.03;;;2.22;;
48853;SDS011;34673;52.808;17.856;2023-04-25T01:11:36;4.47;;;2.13;;
48853;SDS011;34673;52.808;17.856;2023-04-25T01:14:03;9.40;;;2.88;;
48853;SDS011;34673;52.808;17.856;2023-04-25T01:16:31;3.92;;;2.40;;
48853;SDS011;34673;52.808;17.856;2023-04-25T01:18:59;4.72;;;2.40;;
48853;SDS011;34673;52.808;17.856;2023-04-25T01:21:27;4.25;;;2.20;;
48853;SDS011;34673;52.808;17.856;2023-04-25T01:23:56;3.67;;;2.08;;
48853;SDS011;34673;52.808;17.856;2023-04-25T01:26:24;3.80;;;2.22;;
48853;SDS011;34673;52.808;17.856;2023-04-25T01:28:52;3.45;;;1.95;;
48853;SDS011;34673;52.808;17.856;2023-04-25T01:31:19;4.05;;;1.80;;
48853;SDS011;34673;52.808;17.856;2023-04-25T01:33:47;4.07;;;1.70;;
48853;SDS011;34673;52.808;17.856;2023-04-25T01:36:14;6.40;;;1.83;;
48853;SDS011;34673;52.808;17.856;2023-04-25T01:38:42;3.63;;;1.52;;
48853;SDS011;34673;52.808;17.856;2023-04-25T01:41:10;3.05;;;1.40;;
48853;SDS011;34673;52.808;17.856;2023-04-25T01:43:37;2.85;;;1.45;;
48853;SDS011;34673;52.808;17.856;2023-04-25T01:46:05;2.22;;;1.20;;
48853;SDS011;34673;52.808;17.856;2023-04-25T01:48:32;3.70;;;1.20;;
48853;SDS011;34673;52.808;17.856;2023-04-25T01:51:00;5.00;;;1.40;;
48853;SDS011;34673;52.808;17.856;2023-04-25T01:53:28;2.03;;;1.23;;
48853;SDS011;34673;52.808;17.856;2023-04-25T01:55:55;3.97;;;1.02;;
48853;SDS011;34673;52.808;17.856;2023-04-25T01:58:25;1.83;;;1.15;;
48853;SDS011;34673;52.808;17.856;2023-04-25T02:01:04;2.40;;;1.02;;
48853;SDS011;34673;52.808;17.856;2023-04-25T02:03:39;3.35;;;1.30;;
48853;SDS011;34673;52.808;17.856;2023-04-25T02:06:14;1.60;;;0.90;;
48853;SDS011;34673;52.808;17.856;2023-04-25T02:08:43;3.42;;;1.42;;
48853;SDS011;34673;52.808;17.856;2023-04-25T02:11:11;4.80;;;1.20;;
48853;SDS011;34673;52.808;17.856;2023-04-25T02:13:45;2.40;;;1.20;;
48853;SDS011;34673;52.808;17.856;2023-04-25T02:16:31;2.10;;;1.27;;
48853;SDS011;34673;52.808;17.856;2023-04-25T02:19:00;4.10;;;1.10;;
48853;SDS011;34673;52.808;17.856;2023-04-25T02:21:29;2.15;;;1.10;;
48853;SDS011;34673;52.808;17.856;2023-04-25T02:23:57;1.80;;;1.08;;
48853;SDS011;34673;52.808;17.856;2023-04-25T02:26:27;2.25;;;1.10;;
48853;SDS011;34673;52.808;17.856;2023-04-25T02:28:55;1.85;;;1.17;;
48853;SDS011;34673;52.808;17.856;2023-04-25T02:31:23;1.40;;;0.90;;
48853;SDS011;34673;52.808;17.856;2023-04-25T02:33:51;2.05;;;1.13;;
48853;SDS011;34673;52.808;17.856;2023-04-25T02:36:18;4.00;;;1.10;;
48853;SDS011;34673;52.808;17.856;2023-04-25T02:38:47;2.42;;;1.20;;
48853;SDS011;34673;52.808;17.856;2023-04-25T02:41:14;2.10;;;1.15;;
48853;SDS011;34673;52.808;17.856;2023-04-25T02:43:41;1.63;;;1.00;;
48853;SDS011;34673;52.808;17.856;2023-04-25T02:46:09;3.03;;;0.82;;
48853;SDS011;34673;52.808;17.856;2023-04-25T02:48:36;1.95;;;0.88;;
48853;SDS011;34673;52.808;17.856;2023-04-25T02:51:03;1.45;;;1.00;;
48853;SDS011;34673;52.808;17.856;2023-04-25T02:53:31;1.85;;;0.90;;
48853;SDS011;34673;52.808;17.856;2023-04-25T02:55:58;1.83;;;0.90;;
48853;SDS011;34673;52.808;17.856;2023-04-25T02:58:25;2.20;;;0.90;;
48853;SDS011;34673;52.808;17.856;2023-04-25T03:00:53;3.88;;;1.25;;
48853;SDS011;34673;52.808;17.856;2023-04-25T03:03:21;1.98;;;1.10;;
48853;SDS011;34673;52.808;17.856;2023-04-25T03:05:50;1.80;;;1.10;;
48853;SDS011;34673;52.808;17.856;2023-04-25T03:08:22;2.85;;;1.10;;
48853;SDS011;34673;52.808;17.856;2023-04-25T03:10:50;2.85;;;1.10;;
48853;SDS011;34673;52.808;17.856;2023-04-25T03:13:18;3.33;;;1.27;;
48853;SDS011;34673;52.808;17.856;2023-04-25T03:15:46;2.63;;;1.25;;
48853;SDS011;34673;52.808;17.856;2023-04-25T03:18:13;2.03;;;1.02;;
48853;SDS011;34673;52.808;17.856;2023-04-25T03:20:40;3.03;;;1.00;;
48853;SDS011;34673;52.808;17.856;2023-04-25T03:23:08;2.30;;;1.30;;
48853;SDS011;34673;52.808;17.856;2023-04-25T03:25:37;2.87;;;1.20;;
48853;SDS011;34673;52.808;17.856;2023-04-25T03:28:04;3.42;;;1.25;;
48853;SDS011;34673;52.808;17.856;2023-04-25T03:30:32;3.38;;;1.50;;
48853;SDS011;34673;52.808;17.856;2023-04-25T03:32:59;3.42;;;1.40;;
48853;SDS011;34673;52.808;17.856;2023-04-25T03:35:27;2.15;;;1.30;;
48853;SDS011;34673;52.808;17.856;2023-04-25T03:37:54;5.72;;;1.30;;
48853;SDS011;34673;52.808;17.856;2023-04-25T03:40:27;2.08;;;1.30;;
48853;SDS011;34673;52.808;17.856;2023-04-25T03:43:26;2.13;;;1.53;;
48853;SDS011;34673;52.808;17.856;2023-04-25T03:45:59;4.00;;;1.48;;
48853;SDS011;34673;52.808;17.856;2023-04-25T03:48:27;2.90;;;1.58;;
48853;SDS011;34673;52.808;17.856;2023-04-25T03:50:54;5.20;;;1.70;;
48853;SDS011;34673;52.808;17.856;2023-04-25T03:53:21;2.75;;;1.30;;
48853;SDS011;34673;52.808;17.856;2023-04-25T03:56:07;3.20;;;1.73;;
48853;SDS011;34673;52.808;17.856;2023-04-25T03:58:36;3.13;;;1.52;;
48853;SDS011;34673;52.808;17.856;2023-04-25T04:01:04;2.45;;;1.50;;
48853;SDS011;34673;52.808;17.856;2023-04-25T04:03:37;2.28;;;1.67;;
48853;SDS011;34673;52.808;17.856;2023-04-25T04:06:05;5.43;;;2.05;;
48853;SDS011;34673;52.808;17.856;2023-04-25T04:08:39;3.83;;;1.70;;
48853;SDS011;34673;52.808;17.856;2023-04-25T04:11:08;4.53;;;1.55;;
48853;SDS011;34673;52.808;17.856;2023-04-25T04:13:36;3.80;;;1.83;;
48853;SDS011;34673;52.808;17.856;2023-04-25T04:16:04;2.78;;;1.73;;
48853;SDS011;34673;52.808;17.856;2023-04-25T04:18:31;5.65;;;1.90;;
48853;SDS011;34673;52.808;17.856;2023-04-25T04:21:00;5.90;;;2.03;;
48853;SDS011;34673;52.808;17.856;2023-04-25T04:23:30;4.55;;;2.10;;
48853;SDS011;34673;52.808;17.856;2023-04-25T04:25:58;2.55;;;1.85;;
48853;SDS011;34673;52.808;17.856;2023-04-25T04:28:29;3.08;;;1.73;;
48853;SDS011;34673;52.808;17.856;2023-04-25T04:31:04;3.70;;;1.90;;
48853;SDS011;34673;52.808;17.856;2023-04-25T04:33:31;4.40;;;1.70;;
48853;SDS011;34673;52.808;17.856;2023-04-25T04:36:02;3.97;;;2.05;;
48853;SDS011;34673;52.808;17.856;2023-04-25T04:38:31;4.93;;;2.08;;
48853;SDS011;34673;52.808;17.856;2023-04-25T04:41:02;3.90;;;1.90;;
48853;SDS011;34673;52.808;17.856;2023-04-25T04:43:53;5.90;;;2.03;;
48853;SDS011;34673;52.808;17.856;2023-04-25T04:46:30;3.28;;;1.67;;
48853;SDS011;34673;52.808;17.856;2023-04-25T04:49:36;3.17;;;1.92;;
48853;SDS011;34673;52.808;17.856;2023-04-25T04:52:42;3.38;;;1.85;;
48853;SDS011;34673;52.808;17.856;2023-04-25T04:55:41;2.83;;;1.60;;
48853;SDS011;34673;52.808;17.856;2023-04-25T04:58:27;5.03;;;1.65;;
48853;SDS011;34673;52.808;17.856;2023-04-25T05:01:12;3.97;;;1.83;;
48853;SDS011;34673;52.808;17.856;2023-04-25T05:03:58;2.97;;;1.90;;
48853;SDS011;34673;52.808;17.856;2023-04-25T05:06:52;4.97;;;2.08;;
48853;SDS011;34673;52.808;17.856;2023-04-25T05:09:41;3.40;;;1.90;;
48853;SDS011;34673;52.808;17.856;2023-04-25T05:12:26;3.25;;;1.58;;
48853;SDS011;34673;52.808;17.856;2023-04-25T05:15:19;3.40;;;2.03;;
48853;SDS011;34673;52.808;17.856;2023-04-25T05:18:18;3.47;;;2.05;;
48853;SDS011;34673;52.808;17.856;2023-04-25T05:21:05;3.67;;;2.03;;
48853;SDS011;34673;52.808;17.856;2023-04-25T05:23:55;3.53;;;2.30;;
48853;SDS011;34673;52.808;17.856;2023-04-25T05:26:41;4.07;;;1.80;;
48853;SDS011;34673;52.808;17.856;2023-04-25T05:29:31;3.53;;;2.17;;
48853;SDS011;34673;52.808;17.856;2023-04-25T05:32:10;4.10;;;2.20;;
48853;SDS011;34673;52.808;17.856;2023-04-25T05:34:38;4.78;;;2.38;;
48853;SDS011;34673;52.808;17.856;2023-04-25T05:37:11;3.70;;;2.60;;
48853;SDS011;34673;52.808;17.856;2023-04-25T05:39:50;4.07;;;2.38;;
48853;SDS011;34673;52.808;17.856;2023-04-25T05:42:44;5.10;;;2.70;;
48853;SDS011;34673;52.808;17.856;2023-04-25T05:45:30;4.88;;;2.53;;
48853;SDS011;34673;52.808;17.856;2023-04-25T05:48:03;6.68;;;2.88;;
48853;SDS011;34673;52.808;17.856;2023-04-25T05:50:56;3.67;;;2.65;;
48853;SDS011;34673;52.808;17.856;2023-04-25T05:53:46;7.35;;;3.35;;
48853;SDS011;34673;52.808;17.856;2023-04-25T05:56:14;7.30;;;2.80;;
48853;SDS011;34673;52.808;17.856;2023-04-25T05:58:41;4.40;;;3.13;;
48853;SDS011;34673;52.808;17.856;2023-04-25T06:01:11;5.35;;;2.95;;
48853;SDS011;34673;52.808;17.856;2023-04-25T06:03:39;6.25;;;3.20;;
48853;SDS011;34673;52.808;17.856;2023-04-25T06:06:11;7.28;;;2.95;;
48853;SDS011;34673;52.808;17.856;2023-04-25T06:08:38;5.88;;;3.15;;
48853;SDS011;34673;52.808;17.856;2023-04-25T06:11:06;5.43;;;3.40;;
48853;SDS011;34673;52.808;17.856;2023-04-25T06:13:34;6.63;;;2.92;;
48853;SDS011;34673;52.808;17.856;2023-04-25T06:16:01;7.53;;;3.72;;
48853;SDS011;34673;52.808;17.856;2023-04-25T06:18:28;6.70;;;3.30;;
48853;SDS011;34673;52.808;17.856;2023-04-25T06:20:55;4.95;;;3.38;;
48853;SDS011;34673;52.808;17.856;2023-04-25T06:23:23;6.97;;;3.45;;
48853;SDS011;34673;52.808;17.856;2023-04-25T06:25:56;9.10;;;3.65;;
48853;SDS011;34673;52.808;17.856;2023-04-25T06:28:24;6.70;;;3.60;;
48853;SDS011;34673;52.808;17.856;2023-04-25T06:30:51;7.15;;;3.47;;
48853;SDS011;34673;52.808;17.856;2023-04-25T06:33:19;5.30;;;3.38;;
48853;SDS011;34673;52.808;17.856;2023-04-25T06:35:48;7.03;;;3.20;;
48853;SDS011;34673;52.808;17.856;2023-04-25T06:38:18;5.32;;;3.08;;
48853;SDS011;34673;52.808;17.856;2023-04-25T06:40:49;6.65;;;3.38;;
48853;SDS011;34673;52.808;17.856;2023-04-25T06:43:17;7.82;;;3.75;;
48853;SDS011;34673;52.808;17.856;2023-04-25T06:46:04;6.40;;;3.20;;
48853;SDS011;34673;52.808;17.856;2023-04-25T06:48:37;6.85;;;3.70;;
48853;SDS011;34673;52.808;17.856;2023-04-25T06:51:04;5.20;;;3.28;;
48853;SDS011;34673;52.808;17.856;2023-04-25T06:53:33;5.50;;;3.70;;
48853;SDS011;34673;52.808;17.856;2023-04-25T06:56:02;5.47;;;3.70;;
48853;SDS011;34673;52.808;17.856;2023-04-25T06:58:54;5.45;;;3.20;;
48853;SDS011;34673;52.808;17.856;2023-04-25T07:01:32;6.40;;;3.80;;
48853;SDS011;34673;52.808;17.856;2023-04-25T07:04:03;8.27;;;4.45;;
48853;SDS011;34673;52.808;17.856;2023-04-25T07:06:32;6.90;;;3.80;;
48853;SDS011;34673;52.808;17.856;2023-04-25T07:08:59;8.20;;;4.05;;
48853;SDS011;34673;52.808;17.856;2023-04-25T07:11:27;8.55;;;3.70;;
48853;SDS011;34673;52.808;17.856;2023-04-25T07:13:55;8.50;;;3.90;;
48853;SDS011;34673;52.808;17.856;2023-04-25T07:16:22;5.72;;;3.60;;
48853;SDS011;34673;52.808;17.856;2023-04-25T07:18:50;6.75;;;3.85;;
48853;SDS011;34673;52.808;17.856;2023-04-25T07:21:18;6.15;;;4.10;;
48853;SDS011;34673;52.808;17.856;2023-04-25T07:23:46;8.65;;;3.72;;
48853;SDS011;34673;52.808;17.856;2023-04-25T07:26:18;6.70;;;4.07;;
48853;SDS011;34673;52.808;17.856;2023-04-25T07:29:05;5.88;;;4.03;;
48853;SDS011;34673;52.808;17.856;2023-04-25T07:31:32;7.18;;;4.28;;
48853;SDS011;34673;52.808;17.856;2023-04-25T07:34:00;8.52;;;4.13;;
48853;SDS011;34673;52.808;17.856;2023-04-25T07:36:27;7.85;;;4.57;;
48853;SDS011;34673;52.808;17.856;2023-04-25T07:38:55;6.88;;;4.32;;
48853;SDS011;34673;52.808;17.856;2023-04-25T07:41:22;10.43;;;3.97;;
48853;SDS011;34673;52.808;17.856;2023-04-25T07:43:49;7.85;;;3.70;;
48853;SDS011;34673;52.808;17.856;2023-04-25T07:46:18;7.28;;;3.35;;
48853;SDS011;34673;52.808;17.856;2023-04-25T07:48:46;7.47;;;3.55;;
48853;SDS011;34673;52.808;17.856;2023-04-25T07:51:13;6.28;;;3.65;;
48853;SDS011;34673;52.808;17.856;2023-04-25T07:53:41;6.97;;;3.40;;
48853;SDS011;34673;52.808;17.856;2023-04-25T07:58:41;8.07;;;4.57;;
48853;SDS011;34673;52.808;17.856;2023-04-25T08:01:12;5.60;;;3.65;;
48853;SDS011;34673;52.808;17.856;2023-04-25T08:03:48;6.38;;;3.78;;
48853;SDS011;34673;52.808;17.856;2023-04-25T08:06:23;6.90;;;3.95;;
48853;SDS011;34673;52.808;17.856;2023-04-25T08:09:16;7.78;;;3.47;;
48853;SDS011;34673;52.808;17.856;2023-04-25T08:11:44;7.57;;;3.90;;
48853;SDS011;34673;52.808;17.856;2023-04-25T08:14:14;7.28;;;3.65;;
48853;SDS011;34673;52.808;17.856;2023-04-25T08:16:42;4.80;;;3.30;;
48853;SDS011;34673;52.808;17.856;2023-04-25T08:19:10;9.13;;;4.00;;
48853;SDS011;34673;52.808;17.856;2023-04-25T08:21:37;8.25;;;4.05;;
48853;SDS011;34673;52.808;17.856;2023-04-25T08:24:09;6.90;;;3.40;;
48853;SDS011;34673;52.808;17.856;2023-04-25T08:26:38;8.38;;;3.63;;
48853;SDS011;34673;52.808;17.856;2023-04-25T08:29:07;5.50;;;3.25;;
48853;SDS011;34673;52.808;17.856;2023-04-25T08:31:38;7.15;;;3.33;;
48853;SDS011;34673;52.808;17.856;2023-04-25T08:34:06;6.47;;;3.30;;
48853;SDS011;34673;52.808;17.856;2023-04-25T08:36:38;4.75;;;2.72;;
48853;SDS011;34673;52.808;17.856;2023-04-25T08:39:24;7.10;;;3.15;;
48853;SDS011;34673;52.808;17.856;2023-04-25T08:42:14;5.43;;;3.00;;
48853;SDS011;34673;52.808;17.856;2023-04-25T08:44:42;6.57;;;3.45;;
48853;SDS011;34673;52.808;17.856;2023-04-25T08:47:12;8.05;;;3.33;;
48853;SDS011;34673;52.808;17.856;2023-04-25T08:49:45;6.45;;;3.20;;
48853;SDS011;34673;52.808;17.856;2023-04-25T08:52:15;5.93;;;3.65;;
48853;SDS011;34673;52.808;17.856;2023-04-25T08:54:50;4.70;;;3.42;;
48853;SDS011;34673;52.808;17.856;2023-04-25T08:57:19;6.20;;;3.40;;
48853;SDS011;34673;52.808;17.856;2023-04-25T08:59:48;5.72;;;3.55;;
48853;SDS011;34673;52.808;17.856;2023-04-25T09:02:17;5.13;;;3.28;;
48853;SDS011;34673;52.808;17.856;2023-04-25T09:04:48;5.85;;;3.40;;
48853;SDS011;34673;52.808;17.856;2023-04-25T09:07:16;6.55;;;3.10;;
48853;SDS011;34673;52.808;17.856;2023-04-25T09:09:47;6.78;;;2.90;;
48853;SDS011;34673;52.808;17.856;2023-04-25T09:12:20;4.07;;;2.60;;
48853;SDS011;34673;52.808;17.856;2023-04-25T09:17:57;4.72;;;2.47;;
48853;SDS011;34673;52.808;17.856;2023-04-25T09:20:30;4.82;;;2.40;;
48853;SDS011;34673;52.808;17.856;2023-04-25T09:23:04;4.82;;;2.30;;
48853;SDS011;34673;52.808;17.856;2023-04-25T09:25:35;5.03;;;2.35;;
48853;SDS011;34673;52.808;17.856;2023-04-25T09:28:07;4.15;;;1.90;;
48853;SDS011;34673;52.808;17.856;2023-04-25T09:30:35;4.97;;;1.90;;
48853;SDS011;34673;52.808;17.856;2023-04-25T09:33:10;3.85;;;1.70;;
48853;SDS011;34673;52.808;17.856;2023-04-25T09:35:43;7.32;;;2.45;;
48853;SDS011;34673;52.808;17.856;2023-04-25T09:38:20;5.82;;;3.10;;
48853;SDS011;34673;52.808;17.856;2023-04-25T09:41:11;4.35;;;2.30;;
48853;SDS011;34673;52.808;17.856;2023-04-25T09:43:44;5.10;;;2.05;;
48853;SDS011;34673;52.808;17.856;2023-04-25T09:46:14;6.22;;;2.83;;
48853;SDS011;34673;52.808;17.856;2023-04-25T09:48:48;4.97;;;1.85;;
48853;SDS011;34673;52.808;17.856;2023-04-25T09:51:25;3.72;;;2.03;;
48853;SDS011;34673;52.808;17.856;2023-04-25T09:53:57;4.40;;;2.10;;
48853;SDS011;34673;52.808;17.856;2023-04-25T09:56:46;6.10;;;2.40;;
48853;SDS011;34673;52.808;17.856;2023-04-25T09:59:15;3.67;;;1.90;;
48853;SDS011;34673;52.808;17.856;2023-04-25T10:01:42;7.07;;;2.45;;
48853;SDS011;34673;52.808;17.856;2023-04-25T10:04:20;4.43;;;2.40;;
48853;SDS011;34673;52.808;17.856;2023-04-25T10:07:05;3.80;;;2.20;;
48853;SDS011;34673;52.808;17.856;2023-04-25T10:09:36;6.10;;;2.22;;
48853;SDS011;34673;52.808;17.856;2023-04-25T10:12:06;4.50;;;2.10;;
48853;SDS011;34673;52.808;17.856;2023-04-25T10:14:34;4.63;;;1.90;;
48853;SDS011;34673;52.808;17.856;2023-04-25T10:17:02;8.32;;;2.53;;
48853;SDS011;34673;52.808;17.856;2023-04-25T10:19:30;5.60;;;2.63;;
48853;SDS011;34673;52.808;17.856;2023-04-25T10:22:04;6.07;;;2.30;;
48853;SDS011;34673;52.808;17.856;2023-04-25T10:24:35;4.63;;;1.95;;
48853;SDS011;34673;52.808;17.856;2023-04-25T10:27:04;4.30;;;2.25;;
48853;SDS011;34673;52.808;17.856;2023-04-25T10:29:32;5.63;;;2.50;;
48853;SDS011;34673;52.808;17.856;2023-04-25T10:31:59;5.10;;;2.40;;
48853;SDS011;34673;52.808;17.856;2023-04-25T10:34:40;5.68;;;2.40;;
48853;SDS011;34673;52.808;17.856;2023-04-25T10:37:09;5.03;;;2.00;;
48853;SDS011;34673;52.808;17.856;2023-04-25T10:39:38;5.35;;;2.78;;
48853;SDS011;34673;52.808;17.856;2023-04-25T10:42:07;6.47;;;2.80;;
48853;SDS011;34673;52.808;17.856;2023-04-25T10:44:36;4.60;;;2.50;;
48853;SDS011;34673;52.808;17.856;2023-04-25T10:47:06;6.03;;;2.55;;
48853;SDS011;34673;52.808;17.856;2023-04-25T10:49:41;5.47;;;2.60;;
48853;SDS011;34673;52.808;17.856;2023-04-25T10:52:12;4.07;;;2.10;;
48853;SDS011;34673;52.808;17.856;2023-04-25T10:54:42;4.45;;;2.00;;
48853;SDS011;34673;52.808;17.856;2023-04-25T11:02:52;7.63;;;2.57;;
48853;SDS011;34673;52.808;17.856;2023-04-25T11:05:37;5.32;;;2.58;;
48853;SDS011;34673;52.808;17.856;2023-04-25T11:08:30;6.35;;;2.70;;
48853;SDS011;34673;52.808;17.856;2023-04-25T11:11:15;6.10;;;2.80;;
48853;SDS011;34673;52.808;17.856;2023-04-25T11:13:43;4.45;;;2.40;;
48853;SDS011;34673;52.808;17.856;2023-04-25T11:16:10;6.00;;;2.63;;
48853;SDS011;34673;52.808;17.856;2023-04-25T11:18:43;4.25;;;2.63;;
48853;SDS011;34673;52.808;17.856;2023-04-25T11:21:11;3.95;;;2.28;;
48853;SDS011;34673;52.808;17.856;2023-04-25T11:23:38;4.63;;;2.45;;
48853;SDS011;34673;52.808;17.856;2023-04-25T11:26:05;5.97;;;2.63;;
48853;SDS011;34673;52.808;17.856;2023-04-25T11:28:33;8.02;;;3.20;;
48853;SDS011;34673;52.808;17.856;2023-04-25T11:31:02;4.30;;;2.30;;
48853;SDS011;34673;52.808;17.856;2023-04-25T11:35:58;4.35;;;2.03;;
48853;SDS011;34673;52.808;17.856;2023-04-25T11:38:25;5.88;;;2.40;;
48853;SDS011;34673;52.808;17.856;2023-04-25T11:40:55;4.72;;;2.25;;
48853;SDS011;34673;52.808;17.856;2023-04-25T11:43:22;4.57;;;2.60;;
48853;SDS011;34673;52.808;17.856;2023-04-25T11:45:49;5.65;;;2.28;;
48853;SDS011;34673;52.808;17.856;2023-04-25T11:48:20;4.15;;;2.10;;
48853;SDS011;34673;52.808;17.856;2023-04-25T11:50:53;4.60;;;2.33;;
48853;SDS011;34673;52.808;17.856;2023-04-25T11:53:20;4.32;;;2.50;;
48853;SDS011;34673;52.808;17.856;2023-04-25T11:55:48;5.55;;;2.50;;
48853;SDS011;34673;52.808;17.856;2023-04-25T11:58:17;3.90;;;2.30;;
48853;SDS011;34673;52.808;17.856;2023-04-25T12:00:46;5.03;;;2.50;;
48853;SDS011;34673;52.808;17.856;2023-04-25T12:03:16;5.93;;;2.60;;
48853;SDS011;34673;52.808;17.856;2023-04-25T12:05:45;5.15;;;2.75;;
48853;SDS011;34673;52.808;17.856;2023-04-25T12:08:13;4.63;;;3.00;;
48853;SDS011;34673;52.808;17.856;2023-04-25T12:10:42;7.57;;;3.33;;
48853;SDS011;34673;52.808;17.856;2023-04-25T12:13:24;4.95;;;2.60;;
48853;SDS011;34673;52.808;17.856;2023-04-25T12:15:55;5.20;;;2.63;;
48853;SDS011;34673;52.808;17.856;2023-04-25T12:20:52;4.68;;;2.80;;
48853;SDS011;34673;52.808;17.856;2023-04-25T12:23:26;5.38;;;2.25;;
48853;SDS011;34673;52.808;17.856;2023-04-25T12:25:55;5.97;;;2.38;;
48853;SDS011;34673;52.808;17.856;2023-04-25T12:28:23;3.45;;;1.95;;
48853;SDS011;34673;52.808;17.856;2023-04-25T12:33:32;3.72;;;2.30;;
48853;SDS011;34673;52.808;17.856;2023-04-25T12:36:01;6.43;;;2.80;;
48853;SDS011;34673;52.808;17.856;2023-04-25T12:38:38;4.10;;;2.22;;
48853;SDS011;34673;52.808;17.856;2023-04-25T12:41:07;4.88;;;2.38;;
48853;SDS011;34673;52.808;17.856;2023-04-25T12:43:34;5.43;;;3.25;;
48853;SDS011;34673;52.808;17.856;2023-04-25T12:46:01;5.88;;;2.45;;
48853;SDS011;34673;52.808;17.856;2023-04-25T12:48:29;3.92;;;2.40;;
48853;SDS011;34673;52.808;17.856;2023-04-25T12:50:56;5.13;;;2.58;;
48853;SDS011;34673;52.808;17.856;2023-04-25T12:53:23;6.15;;;3.05;;
48853;SDS011;34673;52.808;17.856;2023-04-25T12:55:51;5.88;;;2.90;;
48853;SDS011;34673;52.808;17.856;2023-04-25T12:58:18;5.43;;;2.78;;
48853;SDS011;34673;52.808;17.856;2023-04-25T13:00:46;4.95;;;2.80;;
48853;SDS011;34673;52.808;17.856;2023-04-25T13:03:14;4.95;;;2.88;;
48853;SDS011;34673;52.808;17.856;2023-04-25T13:05:42;5.20;;;2.53;;
48853;SDS011;34673;52.808;17.856;2023-04-25T13:08:09;7.47;;;3.15;;
48853;SDS011;34673;52.808;17.856;2023-04-25T13:10:36;7.50;;;3.20;;
48853;SDS011;34673;52.808;17.856;2023-04-25T13:13:06;8.25;;;3.20;;
48853;SDS011;34673;52.808;17.856;2023-04-25T13:15:33;7.30;;;3.00;;
48853;SDS011;34673;52.808;17.856;2023-04-25T13:18:00;7.13;;;2.90;;
48853;SDS011;34673;52.808;17.856;2023-04-25T13:20:27;6.28;;;2.70;;
48853;SDS011;34673;52.808;17.856;2023-04-25T13:22:55;6.38;;;3.50;;
48853;SDS011;34673;52.808;17.856;2023-04-25T13:25:22;7.07;;;3.20;;
48853;SDS011;34673;52.808;17.856;2023-04-25T13:27:49;4.82;;;2.80;;
48853;SDS011;34673;52.808;17.856;2023-04-25T13:30:16;7.82;;;3.15;;
48853;SDS011;34673;52.808;17.856;2023-04-25T13:32:43;5.63;;;2.88;;
48853;SDS011;34673;52.808;17.856;2023-04-25T13:35:12;11.70;;;4.60;;
48853;SDS011;34673;52.808;17.856;2023-04-25T13:37:43;5.32;;;2.83;;
48853;SDS011;34673;52.808;17.856;2023-04-25T13:40:10;7.32;;;2.70;;
48853;SDS011;34673;52.808;17.856;2023-04-25T13:42:37;5.10;;;2.05;;
48853;SDS011;34673;52.808;17.856;2023-04-25T13:45:05;5.00;;;2.00;;
48853;SDS011;34673;52.808;17.856;2023-04-25T13:47:34;4.43;;;2.35;;
48853;SDS011;34673;52.808;17.856;2023-04-25T13:50:01;4.95;;;2.65;;
48853;SDS011;34673;52.808;17.856;2023-04-25T13:52:30;3.72;;;2.03;;
48853;SDS011;34673;52.808;17.856;2023-04-25T13:54:57;5.07;;;2.80;;
48853;SDS011;34673;52.808;17.856;2023-04-25T13:57:25;4.85;;;2.25;;
48853;SDS011;34673;52.808;17.856;2023-04-25T13:59:52;6.53;;;2.88;;
48853;SDS011;34673;52.808;17.856;2023-04-25T14:02:20;4.55;;;2.55;;
48853;SDS011;34673;52.808;17.856;2023-04-25T14:04:47;5.70;;;2.90;;
48853;SDS011;34673;52.808;17.856;2023-04-25T14:07:14;3.40;;;1.80;;
48853;SDS011;34673;52.808;17.856;2023-04-25T14:09:45;8.38;;;3.60;;
48853;SDS011;34673;52.808;17.856;2023-04-25T14:12:13;5.25;;;2.17;;
48853;SDS011;34673;52.808;17.856;2023-04-25T14:14:40;3.78;;;1.80;;
48853;SDS011;34673;52.808;17.856;2023-04-25T14:17:08;5.18;;;2.50;;
48853;SDS011;34673;52.808;17.856;2023-04-25T14:19:35;7.13;;;2.97;;
48853;SDS011;34673;52.808;17.856;2023-04-25T14:22:04;6.35;;;3.00;;
48853;SDS011;34673;52.808;17.856;2023-04-25T14:24:31;6.00;;;2.30;;
48853;SDS011;34673;52.808;17.856;2023-04-25T14:26:58;4.93;;;2.30;;
48853;SDS011;34673;52.808;17.856;2023-04-25T14:29:25;4.93;;;2.40;;
48853;SDS011;34673;52.808;17.856;2023-04-25T14:31:52;6.65;;;1.98;;
48853;SDS011;34673;52.808;17.856;2023-04-25T14:34:21;3.63;;;1.65;;
48853;SDS011;34673;52.808;17.856;2023-04-25T14:36:48;3.80;;;1.65;;
48853;SDS011;34673;52.808;17.856;2023-04-25T14:39:15;3.95;;;1.50;;
48853;SDS011;34673;52.808;17.856;2023-04-25T14:41:43;4.97;;;2.08;;
48853;SDS011;34673;52.808;17.856;2023-04-25T14:44:10;3.55;;;2.00;;
48853;SDS011;34673;52.808;17.856;2023-04-25T14:46:38;5.85;;;2.28;;
48853;SDS011;34673;52.808;17.856;2023-04-25T14:49:05;4.47;;;2.08;;
48853;SDS011;34673;52.808;17.856;2023-04-25T14:51:32;3.97;;;2.20;;
48853;SDS011;34673;52.808;17.856;2023-04-25T14:54:00;5.05;;;2.35;;
48853;SDS011;34673;52.808;17.856;2023-04-25T14:56:27;5.95;;;2.42;;
48853;SDS011;34673;52.808;17.856;2023-04-25T14:58:54;4.38;;;2.33;;
48853;SDS011;34673;52.808;17.856;2023-04-25T15:01:22;6.35;;;2.75;;
48853;SDS011;34673;52.808;17.856;2023-04-25T15:03:49;6.55;;;2.90;;
48853;SDS011;34673;52.808;17.856;2023-04-25T15:06:18;6.40;;;3.22;;
48853;SDS011;34673;52.808;17.856;2023-04-25T15:08:45;9.52;;;4.05;;
48853;SDS011;34673;52.808;17.856;2023-04-25T15:11:12;7.07;;;3.40;;
48853;SDS011;34673;52.808;17.856;2023-04-25T15:13:39;7.35;;;3.03;;